logo
Rechercher aéroport 
image banner adimage banner adimage banner ad
image banner ad

ZYCC - Changchun/Longjia

Situé à Changchun, China

ICAO - ZYCC, IATA - CGQ

Données fournies par Airmate  

Information générale

Coordonnées: N43°59'54" E125°41'18"
Élévation : 705 feet MSL.
 
Voir autres Aéroports à Jilin Province

Données opérationnelles

Special qualification required
Heure actuelle UTC:
Heure actuelle locale:
Météo
METAR: ZYCC 222300Z 03004MPS 360V060 9999 -SHRA FEW030CB SCT030 09/06 Q1013 NOSIG
TAF: TAF ZYCC 222110Z 2300/2324 33005G10MPS 6000 FEW030 TX19/2306Z TN06/2321Z
Voir NOTAMs / SUP AIP / TFR affectant cet aéroport [VIEW]
Fréquences de communication: [VIEW]

Pistes:

Identifiant RWYQFULongueur (ft)Largeur (ft)SurfaceLDA (ft)
0649°10499148CON
24229°10499148CON

Coordonnées de l'aéroport

Adresse: Changchun China

Vue satellite de ZYCC